createdAt,value
2017-04-16T00:00:53.353Z,0
2017-04-16T00:04:44.000Z,0
2017-04-16T00:06:59.104Z,0
2017-04-16T00:09:22.531Z,0
2017-04-16T00:11:37.583Z,0
2017-04-16T00:16:10.698Z,0
2017-04-16T00:18:25.750Z,0
2017-04-16T00:20:49.225Z,0
2017-04-16T00:23:12.578Z,0
2017-04-16T00:25:35.996Z,0
2017-04-16T00:27:59.421Z,0
2017-04-16T00:30:22.856Z,0
2017-04-16T00:32:46.268Z,0
2017-04-16T00:35:09.612Z,0
2017-04-16T00:37:33.080Z,0
2017-04-16T00:39:56.422Z,0
2017-04-16T00:42:19.976Z,0
2017-04-16T00:44:43.208Z,0
2017-04-16T00:47:06.649Z,0
2017-04-16T00:49:30.080Z,0
2017-04-16T00:51:54.022Z,0
2017-04-16T00:54:17.594Z,0
2017-04-16T00:56:40.815Z,0
2017-04-16T00:59:04.173Z,0
2017-04-16T01:02:55.021Z,0
2017-04-16T01:05:18.504Z,0
2017-04-16T01:07:33.582Z,0
2017-04-16T01:09:57.082Z,0
2017-04-16T01:12:12.131Z,0
2017-04-16T01:14:35.571Z,0
2017-04-16T01:16:59.021Z,0
2017-04-16T01:19:22.468Z,0
2017-04-16T01:21:45.879Z,0
2017-04-16T01:24:09.251Z,0
2017-04-16T01:26:32.687Z,0
2017-04-16T01:28:47.576Z,0
2017-04-16T01:31:10.997Z,0
2017-04-16T01:33:34.444Z,0
2017-04-16T01:35:58.054Z,0
2017-04-16T01:38:21.223Z,0
2017-04-16T01:40:44.795Z,0
2017-04-16T01:43:08.075Z,0
2017-04-16T01:45:31.656Z,0
2017-04-16T01:47:54.875Z,0
2017-04-16T01:50:09.895Z,0
2017-04-16T01:54:42.991Z,0
2017-04-16T01:59:16.574Z,0
2017-04-16T02:01:31.575Z,0
2017-04-16T02:05:47.897Z,0
2017-04-16T02:08:02.904Z,0
2017-04-16T02:10:27.321Z,0
2017-04-16T02:12:42.349Z,0
2017-04-16T02:15:05.628Z,0
2017-04-16T02:17:28.913Z,0
2017-04-16T02:19:52.313Z,0
2017-04-16T02:22:15.746Z,0
2017-04-16T02:24:39.157Z,0
2017-04-16T02:27:02.731Z,0
2017-04-16T02:29:27.140Z,0
2017-04-16T02:31:50.545Z,0
2017-04-16T02:34:13.918Z,0
2017-04-16T02:36:37.280Z,0
2017-04-16T02:42:48.311Z,0
2017-04-16T02:45:11.737Z,0
2017-04-16T02:47:26.755Z,0
2017-04-16T02:49:50.170Z,0
2017-04-16T02:52:13.591Z,0
2017-04-16T02:54:36.972Z,0
2017-04-16T02:57:00.403Z,0
2017-04-16T02:59:23.828Z,0
2017-04-16T03:01:47.260Z,0
2017-04-16T03:04:10.670Z,0
2017-04-16T03:06:34.077Z,0
2017-04-16T03:08:57.426Z,0
2017-04-16T03:11:12.432Z,0
2017-04-16T03:13:35.862Z,0
2017-04-16T03:15:59.247Z,0
2017-04-16T03:18:22.640Z,0
2017-04-16T03:20:46.043Z,0
2017-04-16T03:23:01.058Z,0
2017-04-16T03:25:24.466Z,0
2017-04-16T03:27:47.883Z,0
2017-04-16T03:32:04.683Z,0
2017-04-16T03:34:28.103Z,0
2017-04-16T03:36:51.426Z,0
2017-04-16T03:39:14.826Z,0
2017-04-16T03:41:21.410Z,0
2017-04-16T03:43:44.831Z,0
2017-04-16T03:46:08.232Z,0
2017-04-16T03:48:31.624Z,0
2017-04-16T03:50:38.250Z,0
2017-04-16T03:52:53.246Z,0
2017-04-16T03:55:16.632Z,0
2017-04-16T03:57:31.602Z,0
2017-04-16T03:59:55.011Z,0
2017-04-16T04:02:18.428Z,0
2017-04-16T04:04:41.838Z,0
2017-04-16T04:06:56.824Z,0
2017-04-16T04:09:20.219Z,0
2017-04-16T04:11:43.580Z,0
2017-04-16T04:14:06.922Z,0
2017-04-16T04:16:30.306Z,0
2017-04-16T04:18:53.703Z,0
2017-04-16T04:21:17.285Z,0
2017-04-16T04:23:40.620Z,0
2017-04-16T04:26:03.841Z,0
2017-04-16T04:28:27.276Z,0
2017-04-16T04:30:50.691Z,0
2017-04-16T04:33:14.104Z,0
2017-04-16T04:37:13.306Z,0
2017-04-16T04:39:36.717Z,0
2017-04-16T04:41:51.707Z,0
2017-04-16T04:44:06.694Z,0
2017-04-16T04:46:21.607Z,0
2017-04-16T04:48:44.979Z,0
2017-04-16T04:51:08.350Z,0
2017-04-16T04:53:31.719Z,0
2017-04-16T04:55:55.103Z,0
2017-04-16T05:00:20.145Z,0
2017-04-16T05:02:43.523Z,5
2017-04-16T05:05:06.923Z,5
2017-04-16T05:07:30.317Z,5
2017-04-16T05:09:53.711Z,5
2017-04-16T05:12:17.115Z,5
2017-04-16T05:14:40.431Z,5
2017-04-16T05:18:48.722Z,0
2017-04-16T05:21:12.050Z,0
2017-04-16T05:23:35.410Z,0
2017-04-16T05:25:58.757Z,0
2017-04-16T05:28:22.076Z,0
2017-04-16T05:30:45.472Z,0
2017-04-16T05:33:08.864Z,0
2017-04-16T05:37:42.324Z,0
2017-04-16T05:40:05.725Z,0
2017-04-16T05:44:30.263Z,5
2017-04-16T05:46:53.674Z,5
2017-04-16T05:53:16.793Z,5
2017-04-16T05:55:40.196Z,5
2017-04-16T06:02:06.484Z,10
2017-04-16T06:04:29.886Z,10
2017-04-16T06:09:03.441Z,10
2017-04-16T06:11:26.756Z,10
2017-04-16T06:13:50.174Z,10
2017-04-16T06:16:13.519Z,10
2017-04-16T06:18:36.795Z,10
2017-04-16T06:20:51.787Z,10
2017-04-16T06:23:15.099Z,10
2017-04-16T06:27:40.444Z,15
2017-04-16T06:30:03.879Z,15
2017-04-16T06:32:27.311Z,15
2017-04-16T06:34:50.735Z,15
2017-04-16T06:37:14.127Z,20
2017-04-16T06:41:38.740Z,20
2017-04-16T06:44:02.232Z,20
2017-04-16T06:46:25.719Z,25
2017-04-16T06:48:40.792Z,25
2017-04-16T06:51:04.189Z,25
2017-04-16T06:53:27.694Z,25
2017-04-16T06:55:51.190Z,30
2017-04-16T06:58:14.667Z,30
2017-04-16T07:00:38.215Z,30
2017-04-16T07:03:01.672Z,25
2017-04-16T07:05:25.234Z,25
2017-04-16T07:07:48.820Z,25
2017-04-16T07:10:12.178Z,25
2017-04-16T07:14:37.359Z,25
2017-04-16T07:19:11.603Z,30
2017-04-16T07:21:35.107Z,30
2017-04-16T07:23:58.606Z,30
2017-04-16T07:26:22.152Z,35
2017-04-16T07:30:55.412Z,35
2017-04-16T07:33:18.978Z,35
2017-04-16T07:35:34.089Z,35
2017-04-16T07:37:57.640Z,35
2017-04-16T07:40:12.777Z,35
2017-04-16T07:42:36.342Z,35
2017-04-16T07:44:59.898Z,35
2017-04-16T07:49:33.731Z,35
2017-04-16T07:51:57.355Z,35
2017-04-16T07:54:12.484Z,35
2017-04-16T07:56:36.072Z,30
2017-04-16T07:58:51.245Z,30
2017-04-16T08:01:14.858Z,30
2017-04-16T08:03:38.453Z,30
2017-04-16T08:06:02.045Z,25
2017-04-16T08:08:25.649Z,25
2017-04-16T08:10:49.270Z,25
2017-04-16T08:15:14.518Z,25
2017-04-16T08:19:48.309Z,30
2017-04-16T08:22:11.903Z,35
2017-04-16T08:24:27.089Z,35
2017-04-16T08:26:42.280Z,35
2017-04-16T08:29:05.884Z,35
2017-04-16T08:31:29.461Z,40
2017-04-16T08:33:44.654Z,40
2017-04-16T08:36:08.257Z,35
2017-04-16T08:38:31.863Z,35
2017-04-16T08:42:57.205Z,35
2017-04-16T08:47:31.089Z,35
2017-04-16T08:49:54.750Z,40
2017-04-16T08:52:18.384Z,45
2017-04-16T08:54:42.012Z,45
2017-04-16T08:57:05.649Z,50
2017-04-16T08:59:20.890Z,55
2017-04-16T09:01:44.513Z,65
2017-04-16T09:03:59.785Z,70
2017-04-16T09:06:24.032Z,65
2017-04-16T09:08:47.731Z,60
2017-04-16T09:11:11.432Z,65
2017-04-16T09:13:35.161Z,70
2017-04-16T09:15:58.904Z,75
2017-04-16T09:18:22.610Z,75
2017-04-16T09:20:37.929Z,70
2017-04-16T09:23:01.663Z,65
2017-04-16T09:25:25.424Z,60
2017-04-16T09:29:59.035Z,65
2017-04-16T09:32:22.844Z,65
2017-04-16T09:34:46.640Z,70
2017-04-16T09:37:02.023Z,70
2017-04-16T09:39:25.832Z,70
2017-04-16T09:41:42.233Z,70
2017-04-16T09:44:06.072Z,75
2017-04-16T09:46:29.925Z,80
2017-04-16T09:48:53.805Z,75
2017-04-16T09:51:09.138Z,75
2017-04-16T09:53:32.935Z,75
2017-04-16T09:58:11.751Z,95
2017-04-16T10:00:35.647Z,85
2017-04-16T10:02:59.520Z,80
2017-04-16T10:07:25.227Z,80
2017-04-16T10:10:05.887Z,75
2017-04-16T10:12:28.676Z,80
2017-04-16T10:16:54.390Z,65
2017-04-16T10:19:18.295Z,60
2017-04-16T10:21:42.221Z,60
2017-04-16T10:24:06.117Z,65
2017-04-16T10:28:31.320Z,60
2017-04-16T10:30:46.781Z,70
2017-04-16T10:33:10.616Z,75
2017-04-16T10:35:34.473Z,70
2017-04-16T10:37:58.323Z,70
2017-04-16T10:40:22.177Z,60
2017-04-16T10:42:45.993Z,55
2017-04-16T10:45:09.803Z,50
2017-04-16T10:47:33.599Z,45
2017-04-16T10:51:59.266Z,45
2017-04-16T10:54:23.044Z,45
2017-04-16T10:56:38.374Z,40
2017-04-16T10:59:02.117Z,35
2017-04-16T11:03:36.155Z,45
2017-04-16T11:05:59.854Z,40
2017-04-16T11:08:23.547Z,25
2017-04-16T11:10:38.786Z,20
2017-04-16T11:13:02.436Z,15
2017-04-16T11:15:26.059Z,15
2017-04-16T11:17:49.574Z,10
2017-04-16T11:20:13.200Z,10
2017-04-16T11:22:36.765Z,10
2017-04-16T11:25:00.328Z,15
2017-04-16T11:27:15.453Z,15
2017-04-16T11:29:39.876Z,15
2017-04-16T11:32:03.426Z,25
2017-04-16T11:34:26.942Z,30
2017-04-16T11:36:50.432Z,35
2017-04-16T11:39:16.374Z,45
2017-04-16T11:41:48.383Z,50
2017-04-16T11:44:01.605Z,50
2017-04-16T11:46:16.793Z,55
2017-04-16T11:48:40.420Z,55
2017-04-16T11:50:55.621Z,55
2017-04-16T11:53:19.318Z,55
2017-04-16T11:55:42.993Z,50
2017-04-16T11:58:06.661Z,45
2017-04-16T12:00:13.553Z,35
2017-04-16T12:02:37.245Z,30
2017-04-16T12:05:00.946Z,25
2017-04-16T12:07:24.629Z,25
2017-04-16T12:09:48.306Z,20
2017-04-16T12:12:11.923Z,15
2017-04-16T12:14:35.530Z,15
2017-04-16T12:19:00.971Z,15
2017-04-16T12:21:24.554Z,15
2017-04-16T12:23:48.106Z,15
2017-04-16T12:28:22.758Z,20
2017-04-16T12:30:45.451Z,20
2017-04-16T12:33:08.953Z,25
2017-04-16T12:35:24.759Z,30
2017-04-16T12:37:48.240Z,40
2017-04-16T12:42:13.901Z,40
2017-04-16T12:44:36.623Z,40
2017-04-16T12:47:03.963Z,40
2017-04-16T12:49:27.517Z,40
2017-04-16T12:51:52.888Z,40
2017-04-16T12:56:17.926Z,35
2017-04-16T12:58:41.958Z,35
2017-04-16T13:01:06.362Z,30
2017-04-16T13:03:29.870Z,30
2017-04-16T13:05:44.990Z,30
2017-04-16T13:08:08.513Z,30
2017-04-16T13:10:23.588Z,25
2017-04-16T13:12:38.676Z,25
2017-04-16T13:15:02.149Z,25
2017-04-16T13:17:18.206Z,25
2017-04-16T13:19:41.700Z,20
2017-04-16T13:22:05.174Z,20
2017-04-16T13:24:28.630Z,15
2017-04-16T13:28:53.237Z,10
2017-04-16T13:31:16.711Z,10
2017-04-16T13:33:40.160Z,5
2017-04-16T13:38:05.615Z,5
2017-04-16T13:40:29.038Z,10
2017-04-16T13:42:52.469Z,10
2017-04-16T13:45:15.788Z,15
2017-04-16T13:47:39.173Z,15
2017-04-16T13:52:03.732Z,20
2017-04-16T13:56:02.783Z,20
2017-04-16T13:58:17.785Z,20
2017-04-16T14:00:41.156Z,20
2017-04-16T14:03:05.175Z,20
2017-04-16T14:05:28.682Z,20
2017-04-16T14:07:52.674Z,25
2017-04-16T14:10:19.687Z,25
2017-04-16T14:12:51.705Z,25
2017-04-16T14:15:18.181Z,25
2017-04-16T14:17:42.238Z,30
2017-04-16T14:20:09.677Z,30
2017-04-16T14:22:35.176Z,35
2017-04-16T14:25:02.179Z,35
2017-04-16T14:27:28.197Z,35
2017-04-16T14:29:54.183Z,35
2017-04-16T14:32:20.189Z,30
2017-04-16T14:34:46.183Z,30
2017-04-16T14:37:15.690Z,30
2017-04-16T14:39:42.680Z,30
2017-04-16T14:42:08.186Z,30
2017-04-16T14:44:37.723Z,30
2017-04-16T14:47:10.188Z,25
2017-04-16T14:49:33.680Z,25
2017-04-16T14:52:01.193Z,30
2017-04-16T14:54:28.191Z,30
2017-04-16T14:56:54.189Z,30
2017-04-16T14:59:23.684Z,35
2017-04-16T15:01:54.190Z,40
2017-04-16T15:04:24.188Z,40
2017-04-16T15:06:50.693Z,45
2017-04-16T15:09:20.690Z,45
2017-04-16T15:13:38.753Z,45
2017-04-16T15:15:59.747Z,45
2017-04-16T15:18:24.246Z,45
2017-04-16T15:20:51.246Z,45
2017-04-16T15:23:21.243Z,45
2017-04-16T15:25:44.784Z,45
2017-04-16T15:28:13.750Z,40
2017-04-16T15:30:41.754Z,35
2017-04-16T15:33:05.757Z,35
2017-04-16T15:38:05.750Z,25
2017-04-16T15:40:40.245Z,25
2017-04-16T15:43:05.255Z,20
2017-04-16T15:45:32.749Z,20
2017-04-16T15:48:00.747Z,20
2017-04-16T15:50:27.253Z,20
2017-04-16T15:52:49.801Z,20
2017-04-16T15:55:13.324Z,20
2017-04-16T15:57:51.266Z,20
2017-04-16T16:00:23.257Z,20
2017-04-16T16:02:46.260Z,15
2017-04-16T16:05:14.272Z,15
2017-04-16T16:07:38.257Z,10
2017-04-16T16:10:05.764Z,10
2017-04-16T16:12:32.253Z,10
2017-04-16T16:15:02.749Z,10
2017-04-16T16:17:30.263Z,10
2017-04-16T16:19:57.762Z,10
2017-04-16T16:22:24.263Z,5
2017-04-16T16:24:49.254Z,5
2017-04-16T16:27:16.253Z,10
2017-04-16T16:33:41.197Z,10
2017-04-16T16:38:14.934Z,10
2017-04-16T16:40:38.317Z,10
2017-04-16T16:43:01.805Z,10
2017-04-16T16:45:25.289Z,5
2017-04-16T16:47:48.789Z,5
2017-04-16T16:50:12.218Z,5
2017-04-16T16:52:35.660Z,5
2017-04-16T16:54:59.109Z,5
2017-04-16T16:57:22.539Z,5
2017-04-16T16:59:46.040Z,5
2017-04-16T17:02:09.365Z,5
2017-04-16T17:04:32.759Z,5
2017-04-16T17:08:57.775Z,5
2017-04-16T17:11:21.229Z,5
2017-04-16T17:13:44.646Z,5
2017-04-16T17:16:08.045Z,5
2017-04-16T17:18:31.448Z,5
2017-04-16T17:20:46.421Z,5
2017-04-16T17:23:09.790Z,5
2017-04-16T17:25:33.160Z,5
2017-04-16T17:27:56.579Z,5
2017-04-16T17:30:19.934Z,0
2017-04-16T17:32:43.354Z,0
2017-04-16T17:35:06.792Z,5
2017-04-16T17:39:39.899Z,5
2017-04-16T17:41:56.647Z,0
2017-04-16T17:44:20.056Z,0
2017-04-16T17:46:45.503Z,0
2017-04-16T17:49:08.875Z,0
2017-04-16T17:51:32.226Z,0
2017-04-16T17:53:55.638Z,0
2017-04-16T17:56:19.026Z,0
2017-04-16T17:58:42.435Z,0
2017-04-16T18:01:05.795Z,0
2017-04-16T18:03:29.177Z,0
2017-04-16T18:05:52.576Z,0
2017-04-16T18:08:15.967Z,0
2017-04-16T18:10:39.341Z,0
2017-04-16T18:13:02.713Z,0
2017-04-16T18:15:26.128Z,0
2017-04-16T18:17:49.521Z,0
2017-04-16T18:20:12.918Z,0
2017-04-16T18:22:36.258Z,0
2017-04-16T18:24:59.618Z,0
2017-04-16T18:27:23.015Z,0
2017-04-16T18:29:46.426Z,0
2017-04-16T18:32:09.821Z,0
2017-04-16T18:34:33.228Z,0
2017-04-16T18:36:56.629Z,0
2017-04-16T18:39:11.655Z,0
2017-04-16T18:41:35.072Z,0
2017-04-16T18:46:00.128Z,0
2017-04-16T18:48:15.152Z,0
2017-04-16T18:50:38.547Z,0
2017-04-16T18:53:01.859Z,0
2017-04-16T18:57:26.460Z,0
2017-04-16T18:59:49.779Z,0
2017-04-16T19:02:13.184Z,0
2017-04-16T19:04:36.456Z,0
2017-04-16T19:06:59.926Z,0
2017-04-16T19:09:23.149Z,0
2017-04-16T19:11:46.555Z,0
2017-04-16T19:14:10.870Z,0
2017-04-16T19:16:34.258Z,0
2017-04-16T19:18:49.327Z,0
2017-04-16T19:21:04.265Z,0
2017-04-16T19:25:20.954Z,0
2017-04-16T19:27:44.358Z,0
2017-04-16T19:30:07.726Z,0
2017-04-16T19:32:31.151Z,0
2017-04-16T19:34:59.159Z,0
2017-04-16T19:38:59.767Z,0
2017-04-16T19:41:25.238Z,0
2017-04-16T19:51:06.359Z,0
2017-04-16T19:53:29.627Z,0
2017-04-16T19:55:53.143Z,0
2017-04-16T19:58:16.482Z,0
2017-04-16T20:00:39.868Z,0
2017-04-16T20:03:03.178Z,0
2017-04-16T20:05:27.091Z,0
2017-04-16T20:07:50.946Z,0
2017-04-16T20:10:28.901Z,0
2017-04-16T20:12:52.308Z,0
2017-04-16T20:19:28.224Z,0
2017-04-16T20:21:54.226Z,0
2017-04-16T20:24:17.621Z,0
2017-04-16T20:26:41.086Z,0
2017-04-16T20:29:04.361Z,0
2017-04-16T20:31:27.808Z,0
2017-04-16T20:33:51.145Z,0
2017-04-16T20:36:14.501Z,0
2017-04-16T20:38:38.054Z,0
2017-04-16T20:44:37.721Z,0
2017-04-16T20:47:02.473Z,0
2017-04-16T20:51:41.815Z,0
2017-04-16T20:54:07.849Z,0
2017-04-16T20:56:31.927Z,0
2017-04-16T21:01:04.884Z,0
2017-04-16T21:03:28.288Z,0
2017-04-16T21:05:53.324Z,0
2017-04-16T21:08:16.745Z,0
2017-04-16T21:10:31.635Z,0
2017-04-16T21:12:49.345Z,0
2017-04-16T21:16:55.272Z,0
2017-04-16T21:19:18.644Z,0
2017-04-16T21:21:44.802Z,0
2017-04-16T21:24:13.866Z,0
2017-04-16T21:26:37.244Z,0
2017-04-16T21:29:01.432Z,0
2017-04-16T21:31:24.946Z,0
2017-04-16T21:33:48.259Z,0
2017-04-16T21:36:11.550Z,0
2017-04-16T21:38:34.873Z,0
2017-04-16T21:40:49.734Z,0
2017-04-16T21:43:04.659Z,0
2017-04-16T21:45:28.018Z,0
2017-04-16T21:47:51.348Z,0
2017-04-16T21:50:07.240Z,0
2017-04-16T21:52:47.953Z,0
2017-04-16T21:58:58.723Z,0
2017-04-16T22:01:23.083Z,0
2017-04-16T22:03:46.381Z,0
2017-04-16T22:06:02.220Z,0
2017-04-16T22:10:36.918Z,0
2017-04-16T22:13:00.248Z,0
2017-04-16T22:15:26.593Z,0
2017-04-16T22:22:27.403Z,0
2017-04-16T22:24:50.770Z,0
2017-04-16T22:27:28.819Z,0
2017-04-16T22:29:52.170Z,0
2017-04-16T22:32:15.530Z,0
2017-04-16T22:34:38.898Z,0
2017-04-16T22:37:02.176Z,0
2017-04-16T22:39:25.482Z,0
2017-04-16T22:41:48.814Z,0
2017-04-16T22:44:12.033Z,0
2017-04-16T22:46:35.366Z,0
2017-04-16T22:48:59.643Z,0
2017-04-16T22:51:22.942Z,0
2017-04-16T22:53:46.243Z,0
2017-04-16T22:56:11.490Z,0
2017-04-16T22:58:35.778Z,0
2017-04-16T23:00:59.114Z,0
2017-04-16T23:03:22.400Z,0
2017-04-16T23:05:46.667Z,0
2017-04-16T23:11:14.083Z,0
2017-04-16T23:13:39.415Z,0
2017-04-16T23:16:02.672Z,0
2017-04-16T23:18:25.919Z,0
2017-04-16T23:20:49.181Z,0
2017-04-16T23:23:12.386Z,0
2017-04-16T23:25:42.374Z,0
2017-04-16T23:28:05.600Z,0
2017-04-16T23:30:28.932Z,0
2017-04-16T23:32:52.163Z,0
2017-04-16T23:35:15.401Z,0
2017-04-16T23:37:38.624Z,0
2017-04-16T23:40:01.945Z,0
2017-04-16T23:42:25.273Z,0
2017-04-16T23:45:03.496Z,0
2017-04-16T23:47:26.761Z,0
2017-04-16T23:49:50.029Z,0
2017-04-16T23:52:13.374Z,0
2017-04-16T23:54:36.661Z,0
2017-04-16T23:56:59.961Z,0
2017-04-16T23:59:23.224Z,0
